sensor_id;sensor_type;location;lat;lon;timestamp;P1;durP1;ratioP1;P2;durP2;ratioP2
15285;SDS011;7744;52.172;10.668;2023-03-12T00:00:32;3.40;;;1.67;;
15285;SDS011;7744;52.172;10.668;2023-03-12T00:02:58;2.80;;;1.57;;
15285;SDS011;7744;52.172;10.668;2023-03-12T00:05:23;2.47;;;1.50;;
15285;SDS011;7744;52.172;10.668;2023-03-12T00:07:50;3.23;;;1.50;;
15285;SDS011;7744;52.172;10.668;2023-03-12T00:10:16;1.40;;;1.20;;
15285;SDS011;7744;52.172;10.668;2023-03-12T00:12:42;2.43;;;1.63;;
15285;SDS011;7744;52.172;10.668;2023-03-12T00:15:08;1.70;;;1.20;;
15285;SDS011;7744;52.172;10.668;2023-03-12T00:17:34;3.33;;;1.70;;
15285;SDS011;7744;52.172;10.668;2023-03-12T00:20:00;3.70;;;1.60;;
15285;SDS011;7744;52.172;10.668;2023-03-12T00:22:26;2.70;;;1.43;;
15285;SDS011;7744;52.172;10.668;2023-03-12T00:24:52;3.30;;;1.43;;
15285;SDS011;7744;52.172;10.668;2023-03-12T00:27:19;1.43;;;1.20;;
15285;SDS011;7744;52.172;10.668;2023-03-12T00:29:45;4.17;;;1.70;;
15285;SDS011;7744;52.172;10.668;2023-03-12T00:32:11;4.93;;;1.90;;
15285;SDS011;7744;52.172;10.668;2023-03-12T00:34:36;3.00;;;1.80;;
15285;SDS011;7744;52.172;10.668;2023-03-12T00:37:02;3.67;;;2.40;;
15285;SDS011;7744;52.172;10.668;2023-03-12T00:39:27;4.83;;;2.20;;
15285;SDS011;7744;52.172;10.668;2023-03-12T00:41:53;3.47;;;2.00;;
15285;SDS011;7744;52.172;10.668;2023-03-12T00:44:19;4.43;;;1.87;;
15285;SDS011;7744;52.172;10.668;2023-03-12T00:46:44;5.07;;;1.80;;
15285;SDS011;7744;52.172;10.668;2023-03-12T00:49:10;3.50;;;1.80;;
15285;SDS011;7744;52.172;10.668;2023-03-12T00:51:36;3.23;;;1.63;;
15285;SDS011;7744;52.172;10.668;2023-03-12T00:54:02;2.37;;;1.40;;
15285;SDS011;7744;52.172;10.668;2023-03-12T00:56:28;2.93;;;1.50;;
15285;SDS011;7744;52.172;10.668;2023-03-12T00:58:54;3.10;;;1.80;;
15285;SDS011;7744;52.172;10.668;2023-03-12T01:01:20;3.57;;;1.63;;
15285;SDS011;7744;52.172;10.668;2023-03-12T01:03:45;9.73;;;2.10;;
15285;SDS011;7744;52.172;10.668;2023-03-12T01:06:11;1.97;;;1.40;;
15285;SDS011;7744;52.172;10.668;2023-03-12T01:08:37;2.90;;;1.70;;
15285;SDS011;7744;52.172;10.668;2023-03-12T01:11:03;2.40;;;1.40;;
15285;SDS011;7744;52.172;10.668;2023-03-12T01:13:28;3.30;;;1.63;;
15285;SDS011;7744;52.172;10.668;2023-03-12T01:15:54;5.07;;;1.70;;
15285;SDS011;7744;52.172;10.668;2023-03-12T01:18:20;2.40;;;1.50;;
15285;SDS011;7744;52.172;10.668;2023-03-12T01:20:46;3.93;;;1.50;;
15285;SDS011;7744;52.172;10.668;2023-03-12T01:23:11;2.97;;;1.40;;
15285;SDS011;7744;52.172;10.668;2023-03-12T01:25:37;3.40;;;1.90;;
15285;SDS011;7744;52.172;10.668;2023-03-12T01:28:03;4.40;;;1.73;;
15285;SDS011;7744;52.172;10.668;2023-03-12T01:30:30;2.87;;;1.87;;
15285;SDS011;7744;52.172;10.668;2023-03-12T01:32:56;3.00;;;1.53;;
15285;SDS011;7744;52.172;10.668;2023-03-12T01:35:21;3.00;;;1.70;;
15285;SDS011;7744;52.172;10.668;2023-03-12T01:37:47;3.00;;;1.53;;
15285;SDS011;7744;52.172;10.668;2023-03-12T01:40:14;5.20;;;1.57;;
15285;SDS011;7744;52.172;10.668;2023-03-12T01:42:41;3.17;;;1.43;;
15285;SDS011;7744;52.172;10.668;2023-03-12T01:45:50;3.73;;;1.77;;
15285;SDS011;7744;52.172;10.668;2023-03-12T01:48:10;2.47;;;1.73;;
15285;SDS011;7744;52.172;10.668;2023-03-12T01:50:36;3.97;;;1.70;;
15285;SDS011;7744;52.172;10.668;2023-03-12T01:53:02;3.87;;;1.70;;
15285;SDS011;7744;52.172;10.668;2023-03-12T01:55:28;2.33;;;1.50;;
15285;SDS011;7744;52.172;10.668;2023-03-12T01:57:54;4.57;;;1.70;;
15285;SDS011;7744;52.172;10.668;2023-03-12T02:00:23;2.07;;;1.57;;
15285;SDS011;7744;52.172;10.668;2023-03-12T02:02:51;2.00;;;1.53;;
15285;SDS011;7744;52.172;10.668;2023-03-12T02:08:07;4.67;;;1.80;;
15285;SDS011;7744;52.172;10.668;2023-03-12T02:10:34;3.70;;;1.77;;
15285;SDS011;7744;52.172;10.668;2023-03-12T02:12:59;3.20;;;1.60;;
15285;SDS011;7744;52.172;10.668;2023-03-12T02:15:25;2.03;;;1.37;;
15285;SDS011;7744;52.172;10.668;2023-03-12T02:17:51;2.83;;;1.70;;
15285;SDS011;7744;52.172;10.668;2023-03-12T02:20:22;3.40;;;1.73;;
15285;SDS011;7744;52.172;10.668;2023-03-12T02:23:16;3.20;;;1.40;;
15285;SDS011;7744;52.172;10.668;2023-03-12T02:25:52;2.63;;;1.47;;
15285;SDS011;7744;52.172;10.668;2023-03-12T02:28:20;4.40;;;1.40;;
15285;SDS011;7744;52.172;10.668;2023-03-12T02:30:49;2.00;;;1.30;;
15285;SDS011;7744;52.172;10.668;2023-03-12T02:33:16;2.40;;;1.50;;
15285;SDS011;7744;52.172;10.668;2023-03-12T02:35:44;4.57;;;1.50;;
15285;SDS011;7744;52.172;10.668;2023-03-12T02:44:01;2.67;;;1.60;;
15285;SDS011;7744;52.172;10.668;2023-03-12T02:46:31;3.47;;;1.47;;
15285;SDS011;7744;52.172;10.668;2023-03-12T02:48:59;4.27;;;1.63;;
15285;SDS011;7744;52.172;10.668;2023-03-12T02:51:25;2.40;;;1.40;;
15285;SDS011;7744;52.172;10.668;2023-03-12T02:53:51;3.93;;;1.60;;
15285;SDS011;7744;52.172;10.668;2023-03-12T02:56:19;2.33;;;1.70;;
15285;SDS011;7744;52.172;10.668;2023-03-12T02:58:46;4.80;;;1.90;;
15285;SDS011;7744;52.172;10.668;2023-03-12T03:01:12;3.50;;;1.80;;
15285;SDS011;7744;52.172;10.668;2023-03-12T03:03:37;4.57;;;1.70;;
15285;SDS011;7744;52.172;10.668;2023-03-12T03:06:03;3.13;;;1.30;;
15285;SDS011;7744;52.172;10.668;2023-03-12T03:08:29;4.03;;;1.67;;
15285;SDS011;7744;52.172;10.668;2023-03-12T03:10:54;1.87;;;1.57;;
15285;SDS011;7744;52.172;10.668;2023-03-12T03:13:20;1.97;;;1.33;;
15285;SDS011;7744;52.172;10.668;2023-03-12T03:15:46;1.97;;;1.43;;
15285;SDS011;7744;52.172;10.668;2023-03-12T03:18:11;2.60;;;1.50;;
15285;SDS011;7744;52.172;10.668;2023-03-12T03:20:37;1.83;;;1.37;;
15285;SDS011;7744;52.172;10.668;2023-03-12T03:23:02;2.70;;;1.50;;
15285;SDS011;7744;52.172;10.668;2023-03-12T03:25:28;5.77;;;1.50;;
15285;SDS011;7744;52.172;10.668;2023-03-12T03:27:54;2.40;;;1.70;;
15285;SDS011;7744;52.172;10.668;2023-03-12T03:30:20;4.40;;;1.47;;
15285;SDS011;7744;52.172;10.668;2023-03-12T03:32:46;2.43;;;1.40;;
15285;SDS011;7744;52.172;10.668;2023-03-12T03:35:13;3.53;;;1.40;;
15285;SDS011;7744;52.172;10.668;2023-03-12T03:37:39;1.93;;;1.60;;
15285;SDS011;7744;52.172;10.668;2023-03-12T03:40:05;4.57;;;1.53;;
15285;SDS011;7744;52.172;10.668;2023-03-12T03:42:36;2.50;;;1.70;;
15285;SDS011;7744;52.172;10.668;2023-03-12T03:45:03;4.77;;;1.90;;
15285;SDS011;7744;52.172;10.668;2023-03-12T03:47:29;2.93;;;1.70;;
15285;SDS011;7744;52.172;10.668;2023-03-12T03:49:55;1.90;;;1.50;;
15285;SDS011;7744;52.172;10.668;2023-03-12T03:52:20;3.67;;;1.60;;
15285;SDS011;7744;52.172;10.668;2023-03-12T03:54:46;2.60;;;1.53;;
15285;SDS011;7744;52.172;10.668;2023-03-12T03:57:11;3.80;;;1.60;;
15285;SDS011;7744;52.172;10.668;2023-03-12T03:59:37;2.17;;;1.50;;
15285;SDS011;7744;52.172;10.668;2023-03-12T04:02:02;4.00;;;1.80;;
15285;SDS011;7744;52.172;10.668;2023-03-12T04:04:28;4.97;;;1.90;;
15285;SDS011;7744;52.172;10.668;2023-03-12T04:06:55;2.03;;;1.60;;
15285;SDS011;7744;52.172;10.668;2023-03-12T04:09:20;4.40;;;2.20;;
15285;SDS011;7744;52.172;10.668;2023-03-12T04:11:46;4.53;;;1.83;;
15285;SDS011;7744;52.172;10.668;2023-03-12T04:14:12;1.97;;;1.60;;
15285;SDS011;7744;52.172;10.668;2023-03-12T04:16:37;3.13;;;1.80;;
15285;SDS011;7744;52.172;10.668;2023-03-12T04:19:03;2.10;;;1.70;;
15285;SDS011;7744;52.172;10.668;2023-03-12T04:21:29;5.73;;;1.77;;
15285;SDS011;7744;52.172;10.668;2023-03-12T04:23:54;2.30;;;1.63;;
15285;SDS011;7744;52.172;10.668;2023-03-12T04:26:20;2.97;;;1.80;;
15285;SDS011;7744;52.172;10.668;2023-03-12T04:28:45;2.70;;;1.63;;
15285;SDS011;7744;52.172;10.668;2023-03-12T04:31:11;3.70;;;1.80;;
15285;SDS011;7744;52.172;10.668;2023-03-12T04:33:37;3.33;;;1.60;;
15285;SDS011;7744;52.172;10.668;2023-03-12T04:36:04;3.07;;;1.83;;
15285;SDS011;7744;52.172;10.668;2023-03-12T04:38:31;4.33;;;1.70;;
15285;SDS011;7744;52.172;10.668;2023-03-12T04:41:04;2.37;;;1.80;;
15285;SDS011;7744;52.172;10.668;2023-03-12T04:43:32;3.10;;;1.80;;
15285;SDS011;7744;52.172;10.668;2023-03-12T04:45:58;3.43;;;1.80;;
15285;SDS011;7744;52.172;10.668;2023-03-12T04:48:24;2.33;;;1.63;;
15285;SDS011;7744;52.172;10.668;2023-03-12T04:50:50;2.03;;;1.50;;
15285;SDS011;7744;52.172;10.668;2023-03-12T04:53:16;3.87;;;1.90;;
15285;SDS011;7744;52.172;10.668;2023-03-12T04:55:42;4.00;;;2.00;;
15285;SDS011;7744;52.172;10.668;2023-03-12T04:58:08;3.37;;;1.80;;
15285;SDS011;7744;52.172;10.668;2023-03-12T05:00:33;3.87;;;1.80;;
15285;SDS011;7744;52.172;10.668;2023-03-12T05:02:59;3.77;;;2.03;;
15285;SDS011;7744;52.172;10.668;2023-03-12T05:05:25;4.97;;;2.20;;
15285;SDS011;7744;52.172;10.668;2023-03-12T05:07:50;2.70;;;1.73;;
15285;SDS011;7744;52.172;10.668;2023-03-12T05:10:16;4.67;;;1.80;;
15285;SDS011;7744;52.172;10.668;2023-03-12T05:12:41;3.33;;;2.07;;
15285;SDS011;7744;52.172;10.668;2023-03-12T05:15:07;4.73;;;2.23;;
15285;SDS011;7744;52.172;10.668;2023-03-12T05:17:33;4.30;;;2.20;;
15285;SDS011;7744;52.172;10.668;2023-03-12T05:19:58;4.37;;;2.03;;
15285;SDS011;7744;52.172;10.668;2023-03-12T05:22:24;5.20;;;2.47;;
15285;SDS011;7744;52.172;10.668;2023-03-12T05:24:49;4.13;;;2.40;;
15285;SDS011;7744;52.172;10.668;2023-03-12T05:27:15;3.23;;;1.70;;
15285;SDS011;7744;52.172;10.668;2023-03-12T05:29:40;6.17;;;2.00;;
15285;SDS011;7744;52.172;10.668;2023-03-12T05:32:06;3.13;;;2.17;;
15285;SDS011;7744;52.172;10.668;2023-03-12T05:34:32;2.40;;;1.90;;
15285;SDS011;7744;52.172;10.668;2023-03-12T05:36:58;2.30;;;1.50;;
15285;SDS011;7744;52.172;10.668;2023-03-12T05:39:24;2.90;;;1.90;;
15285;SDS011;7744;52.172;10.668;2023-03-12T05:41:50;4.47;;;2.03;;
15285;SDS011;7744;52.172;10.668;2023-03-12T05:44:21;4.67;;;2.10;;
15285;SDS011;7744;52.172;10.668;2023-03-12T05:46:47;2.67;;;2.17;;
15285;SDS011;7744;52.172;10.668;2023-03-12T05:49:13;5.10;;;2.30;;
15285;SDS011;7744;52.172;10.668;2023-03-12T05:51:39;5.90;;;2.20;;
15285;SDS011;7744;52.172;10.668;2023-03-12T05:54:04;4.63;;;2.20;;
15285;SDS011;7744;52.172;10.668;2023-03-12T05:56:30;4.40;;;2.20;;
15285;SDS011;7744;52.172;10.668;2023-03-12T05:58:56;3.17;;;2.30;;
15285;SDS011;7744;52.172;10.668;2023-03-12T06:01:23;6.03;;;2.03;;
15285;SDS011;7744;52.172;10.668;2023-03-12T06:03:50;3.10;;;2.03;;
15285;SDS011;7744;52.172;10.668;2023-03-12T06:06:16;5.37;;;2.00;;
15285;SDS011;7744;52.172;10.668;2023-03-12T06:08:42;3.33;;;2.27;;
15285;SDS011;7744;52.172;10.668;2023-03-12T06:11:08;4.23;;;2.30;;
15285;SDS011;7744;52.172;10.668;2023-03-12T06:13:34;2.80;;;2.07;;
15285;SDS011;7744;52.172;10.668;2023-03-12T06:16:00;3.03;;;2.27;;
15285;SDS011;7744;52.172;10.668;2023-03-12T06:18:39;3.13;;;2.23;;
15285;SDS011;7744;52.172;10.668;2023-03-12T06:21:10;4.03;;;2.07;;
15285;SDS011;7744;52.172;10.668;2023-03-12T06:23:37;5.10;;;2.27;;
15285;SDS011;7744;52.172;10.668;2023-03-12T06:26:03;3.63;;;2.10;;
15285;SDS011;7744;52.172;10.668;2023-03-12T06:28:29;2.40;;;2.10;;
15285;SDS011;7744;52.172;10.668;2023-03-12T06:30:54;4.47;;;2.27;;
15285;SDS011;7744;52.172;10.668;2023-03-12T06:33:20;2.70;;;2.17;;
15285;SDS011;7744;52.172;10.668;2023-03-12T06:35:46;4.77;;;2.30;;
15285;SDS011;7744;52.172;10.668;2023-03-12T06:38:12;4.37;;;2.40;;
15285;SDS011;7744;52.172;10.668;2023-03-12T06:40:37;5.20;;;2.50;;
15285;SDS011;7744;52.172;10.668;2023-03-12T06:43:03;1.87;;;1.73;;
15285;SDS011;7744;52.172;10.668;2023-03-12T06:45:29;6.50;;;2.33;;
15285;SDS011;7744;52.172;10.668;2023-03-12T06:47:54;4.13;;;1.80;;
15285;SDS011;7744;52.172;10.668;2023-03-12T06:50:20;3.73;;;1.80;;
15285;SDS011;7744;52.172;10.668;2023-03-12T06:52:45;2.00;;;1.70;;
15285;SDS011;7744;52.172;10.668;2023-03-12T06:55:11;2.10;;;1.70;;
15285;SDS011;7744;52.172;10.668;2023-03-12T06:57:37;3.10;;;1.80;;
15285;SDS011;7744;52.172;10.668;2023-03-12T07:00:03;3.23;;;1.97;;
15285;SDS011;7744;52.172;10.668;2023-03-12T07:02:29;2.13;;;1.80;;
15285;SDS011;7744;52.172;10.668;2023-03-12T07:04:54;3.50;;;1.80;;
15285;SDS011;7744;52.172;10.668;2023-03-12T07:07:20;6.27;;;1.70;;
15285;SDS011;7744;52.172;10.668;2023-03-12T07:09:46;5.10;;;1.80;;
15285;SDS011;7744;52.172;10.668;2023-03-12T07:12:11;1.70;;;1.50;;
15285;SDS011;7744;52.172;10.668;2023-03-12T07:14:37;2.70;;;1.80;;
15285;SDS011;7744;52.172;10.668;2023-03-12T07:17:02;4.50;;;2.00;;
15285;SDS011;7744;52.172;10.668;2023-03-12T07:19:28;4.43;;;2.00;;
15285;SDS011;7744;52.172;10.668;2023-03-12T07:21:54;5.13;;;1.97;;
15285;SDS011;7744;52.172;10.668;2023-03-12T07:24:20;2.10;;;1.50;;
15285;SDS011;7744;52.172;10.668;2023-03-12T07:26:46;1.97;;;1.40;;
15285;SDS011;7744;52.172;10.668;2023-03-12T07:29:11;3.03;;;1.67;;
15285;SDS011;7744;52.172;10.668;2023-03-12T07:31:37;4.93;;;1.90;;
15285;SDS011;7744;52.172;10.668;2023-03-12T07:34:02;3.20;;;1.90;;
15285;SDS011;7744;52.172;10.668;2023-03-12T07:36:30;2.77;;;2.10;;
15285;SDS011;7744;52.172;10.668;2023-03-12T07:38:56;2.20;;;1.63;;
15285;SDS011;7744;52.172;10.668;2023-03-12T07:41:22;3.73;;;2.10;;
15285;SDS011;7744;52.172;10.668;2023-03-12T07:43:47;2.03;;;1.73;;
15285;SDS011;7744;52.172;10.668;2023-03-12T07:46:13;3.67;;;1.83;;
15285;SDS011;7744;52.172;10.668;2023-03-12T07:48:39;3.80;;;3.07;;
15285;SDS011;7744;52.172;10.668;2023-03-12T07:51:05;5.80;;;3.73;;
15285;SDS011;7744;52.172;10.668;2023-03-12T07:53:30;2.83;;;2.40;;
15285;SDS011;7744;52.172;10.668;2023-03-12T07:55:56;4.07;;;2.47;;
15285;SDS011;7744;52.172;10.668;2023-03-12T07:58:21;3.57;;;2.00;;
15285;SDS011;7744;52.172;10.668;2023-03-12T08:00:47;6.63;;;2.53;;
15285;SDS011;7744;52.172;10.668;2023-03-12T08:03:13;3.87;;;2.40;;
15285;SDS011;7744;52.172;10.668;2023-03-12T08:05:38;5.33;;;4.83;;
15285;SDS011;7744;52.172;10.668;2023-03-12T08:08:04;20.60;;;14.87;;
15285;SDS011;7744;52.172;10.668;2023-03-12T08:10:30;14.00;;;10.43;;
15285;SDS011;7744;52.172;10.668;2023-03-12T08:12:56;7.80;;;5.10;;
15285;SDS011;7744;52.172;10.668;2023-03-12T08:15:21;8.67;;;6.60;;
15285;SDS011;7744;52.172;10.668;2023-03-12T08:17:47;13.23;;;8.67;;
15285;SDS011;7744;52.172;10.668;2023-03-12T08:20:12;21.33;;;14.53;;
15285;SDS011;7744;52.172;10.668;2023-03-12T08:22:38;18.30;;;11.63;;
15285;SDS011;7744;52.172;10.668;2023-03-12T08:25:04;10.33;;;7.43;;
15285;SDS011;7744;52.172;10.668;2023-03-12T08:27:31;8.77;;;6.67;;
15285;SDS011;7744;52.172;10.668;2023-03-12T08:29:57;16.37;;;11.20;;
15285;SDS011;7744;52.172;10.668;2023-03-12T08:32:23;19.40;;;17.40;;
15285;SDS011;7744;52.172;10.668;2023-03-12T08:34:49;40.10;;;36.20;;
15285;SDS011;7744;52.172;10.668;2023-03-12T08:37:14;85.23;;;54.13;;
15285;SDS011;7744;52.172;10.668;2023-03-12T08:39:40;19.87;;;15.30;;
15285;SDS011;7744;52.172;10.668;2023-03-12T08:42:06;18.47;;;13.60;;
15285;SDS011;7744;52.172;10.668;2023-03-12T08:44:31;73.57;;;51.03;;
15285;SDS011;7744;52.172;10.668;2023-03-12T08:46:57;19.00;;;17.03;;
15285;SDS011;7744;52.172;10.668;2023-03-12T08:49:23;25.33;;;22.83;;
15285;SDS011;7744;52.172;10.668;2023-03-12T08:51:49;58.10;;;44.60;;
15285;SDS011;7744;52.172;10.668;2023-03-12T08:54:16;50.77;;;39.27;;
15285;SDS011;7744;52.172;10.668;2023-03-12T08:56:42;31.37;;;26.30;;
15285;SDS011;7744;52.172;10.668;2023-03-12T08:59:08;18.47;;;15.90;;
15285;SDS011;7744;52.172;10.668;2023-03-12T09:01:35;10.23;;;8.20;;
15285;SDS011;7744;52.172;10.668;2023-03-12T09:04:01;23.87;;;19.43;;
15285;SDS011;7744;52.172;10.668;2023-03-12T09:06:28;21.90;;;17.07;;
15285;SDS011;7744;52.172;10.668;2023-03-12T09:08:54;18.47;;;12.40;;
15285;SDS011;7744;52.172;10.668;2023-03-12T09:11:19;21.07;;;12.57;;
15285;SDS011;7744;52.172;10.668;2023-03-12T09:13:45;28.80;;;18.03;;
15285;SDS011;7744;52.172;10.668;2023-03-12T09:16:10;9.63;;;6.20;;
15285;SDS011;7744;52.172;10.668;2023-03-12T09:18:36;22.50;;;17.07;;
15285;SDS011;7744;52.172;10.668;2023-03-12T09:21:02;19.70;;;14.43;;
15285;SDS011;7744;52.172;10.668;2023-03-12T09:23:28;19.37;;;16.43;;
15285;SDS011;7744;52.172;10.668;2023-03-12T09:25:54;10.70;;;6.87;;
15285;SDS011;7744;52.172;10.668;2023-03-12T09:28:20;21.47;;;16.03;;
15285;SDS011;7744;52.172;10.668;2023-03-12T09:30:45;12.23;;;8.50;;
15285;SDS011;7744;52.172;10.668;2023-03-12T09:33:11;18.67;;;13.80;;
15285;SDS011;7744;52.172;10.668;2023-03-12T09:35:39;9.53;;;6.60;;
15285;SDS011;7744;52.172;10.668;2023-03-12T09:38:05;10.50;;;7.00;;
15285;SDS011;7744;52.172;10.668;2023-03-12T09:40:31;7.47;;;6.17;;
15285;SDS011;7744;52.172;10.668;2023-03-12T09:45:43;9.93;;;6.40;;
15285;SDS011;7744;52.172;10.668;2023-03-12T09:48:12;6.13;;;5.37;;
15285;SDS011;7744;52.172;10.668;2023-03-12T09:50:42;6.33;;;5.00;;
15285;SDS011;7744;52.172;10.668;2023-03-12T09:55:56;3.13;;;2.83;;
15285;SDS011;7744;52.172;10.668;2023-03-12T09:58:27;3.73;;;3.30;;
15285;SDS011;7744;52.172;10.668;2023-03-12T10:06:45;4.63;;;2.90;;
15285;SDS011;7744;52.172;10.668;2023-03-12T10:09:38;3.10;;;2.80;;
15285;SDS011;7744;52.172;10.668;2023-03-12T10:25:46;4.33;;;3.07;;
15285;SDS011;7744;52.172;10.668;2023-03-12T10:28:31;3.57;;;2.10;;
15285;SDS011;7744;52.172;10.668;2023-03-12T10:31:02;5.73;;;2.90;;
15285;SDS011;7744;52.172;10.668;2023-03-12T10:34:07;11.43;;;6.40;;
15285;SDS011;7744;52.172;10.668;2023-03-12T10:36:25;3.57;;;2.63;;
15285;SDS011;7744;52.172;10.668;2023-03-12T10:39:14;5.53;;;4.03;;
15285;SDS011;7744;52.172;10.668;2023-03-12T10:41:41;6.30;;;4.30;;
15285;SDS011;7744;52.172;10.668;2023-03-12T10:44:10;9.37;;;7.37;;
15285;SDS011;7744;52.172;10.668;2023-03-12T10:46:59;6.73;;;3.80;;
15285;SDS011;7744;52.172;10.668;2023-03-12T10:49:34;5.13;;;4.23;;
15285;SDS011;7744;52.172;10.668;2023-03-12T10:52:05;4.27;;;2.70;;
15285;SDS011;7744;52.172;10.668;2023-03-12T10:54:40;2.97;;;1.90;;
15285;SDS011;7744;52.172;10.668;2023-03-12T10:57:08;3.53;;;2.10;;
15285;SDS011;7744;52.172;10.668;2023-03-12T10:59:37;3.20;;;2.10;;
15285;SDS011;7744;52.172;10.668;2023-03-12T11:04:54;3.13;;;1.93;;
15285;SDS011;7744;52.172;10.668;2023-03-12T11:07:21;2.97;;;2.20;;
15285;SDS011;7744;52.172;10.668;2023-03-12T11:12:33;2.50;;;1.13;;
15285;SDS011;7744;52.172;10.668;2023-03-12T11:20:54;3.60;;;1.43;;
15285;SDS011;7744;52.172;10.668;2023-03-12T11:23:32;3.27;;;1.70;;
15285;SDS011;7744;52.172;10.668;2023-03-12T11:26:00;3.10;;;1.53;;
15285;SDS011;7744;52.172;10.668;2023-03-12T11:28:34;3.73;;;2.73;;
15285;SDS011;7744;52.172;10.668;2023-03-12T11:31:01;2.83;;;1.10;;
15285;SDS011;7744;52.172;10.668;2023-03-12T11:33:29;3.50;;;2.30;;
15285;SDS011;7744;52.172;10.668;2023-03-12T11:38:54;4.23;;;2.83;;
15285;SDS011;7744;52.172;10.668;2023-03-12T11:44:15;3.47;;;1.13;;
15285;SDS011;7744;52.172;10.668;2023-03-12T11:47:02;3.20;;;1.30;;
15285;SDS011;7744;52.172;10.668;2023-03-12T12:01:24;3.43;;;1.50;;
15285;SDS011;7744;52.172;10.668;2023-03-12T12:04:27;2.27;;;1.57;;
15285;SDS011;7744;52.172;10.668;2023-03-12T12:15:59;1.50;;;0.90;;
15285;SDS011;7744;52.172;10.668;2023-03-12T12:18:51;1.63;;;1.07;;
15285;SDS011;7744;52.172;10.668;2023-03-12T12:27:07;2.83;;;1.40;;
15285;SDS011;7744;52.172;10.668;2023-03-12T12:35:37;5.47;;;1.37;;
15285;SDS011;7744;52.172;10.668;2023-03-12T12:40:54;5.33;;;1.63;;
15285;SDS011;7744;52.172;10.668;2023-03-12T12:43:39;3.40;;;1.60;;
15285;SDS011;7744;52.172;10.668;2023-03-12T12:46:08;2.77;;;1.60;;
15285;SDS011;7744;52.172;10.668;2023-03-12T12:48:39;3.97;;;1.90;;
15285;SDS011;7744;52.172;10.668;2023-03-12T12:51:08;3.73;;;1.77;;
15285;SDS011;7744;52.172;10.668;2023-03-12T12:53:38;5.07;;;2.73;;
15285;SDS011;7744;52.172;10.668;2023-03-12T13:01:51;3.47;;;2.33;;
15285;SDS011;7744;52.172;10.668;2023-03-12T13:04:22;2.67;;;2.10;;
15285;SDS011;7744;52.172;10.668;2023-03-12T13:06:55;4.43;;;2.37;;
15285;SDS011;7744;52.172;10.668;2023-03-12T13:09:23;5.53;;;3.27;;
15285;SDS011;7744;52.172;10.668;2023-03-12T13:12:28;40.47;;;24.57;;
15285;SDS011;7744;52.172;10.668;2023-03-12T13:14:55;4.77;;;3.00;;
15285;SDS011;7744;52.172;10.668;2023-03-12T13:17:34;4.23;;;2.50;;
15285;SDS011;7744;52.172;10.668;2023-03-12T13:20:21;5.30;;;3.40;;
15285;SDS011;7744;52.172;10.668;2023-03-12T13:25:48;5.77;;;3.80;;
15285;SDS011;7744;52.172;10.668;2023-03-12T13:36:42;7.60;;;5.93;;
15285;SDS011;7744;52.172;10.668;2023-03-12T13:41:45;4.00;;;2.30;;
15285;SDS011;7744;52.172;10.668;2023-03-12T13:50:07;4.33;;;2.83;;
15285;SDS011;7744;52.172;10.668;2023-03-12T13:52:39;5.57;;;2.57;;
15285;SDS011;7744;52.172;10.668;2023-03-12T13:55:24;2.67;;;2.10;;
15285;SDS011;7744;52.172;10.668;2023-03-12T13:58:05;3.13;;;2.10;;
15285;SDS011;7744;52.172;10.668;2023-03-12T14:00:38;3.30;;;2.03;;
15285;SDS011;7744;52.172;10.668;2023-03-12T14:05:51;3.73;;;2.27;;
15285;SDS011;7744;52.172;10.668;2023-03-12T14:17:11;2.37;;;2.13;;
15285;SDS011;7744;52.172;10.668;2023-03-12T14:19:50;2.33;;;1.90;;
15285;SDS011;7744;52.172;10.668;2023-03-12T14:22:36;2.50;;;2.17;;
15285;SDS011;7744;52.172;10.668;2023-03-12T14:25:11;12.57;;;10.53;;
15285;SDS011;7744;52.172;10.668;2023-03-12T14:27:59;3.80;;;3.00;;
15285;SDS011;7744;52.172;10.668;2023-03-12T14:33:15;3.67;;;2.60;;
15285;SDS011;7744;52.172;10.668;2023-03-12T14:35:56;2.93;;;2.40;;
15285;SDS011;7744;52.172;10.668;2023-03-12T14:38:35;5.77;;;2.30;;
15285;SDS011;7744;52.172;10.668;2023-03-12T14:41:19;3.10;;;2.30;;
15285;SDS011;7744;52.172;10.668;2023-03-12T14:43:52;3.87;;;2.70;;
15285;SDS011;7744;52.172;10.668;2023-03-12T14:46:22;2.30;;;2.10;;
15285;SDS011;7744;52.172;10.668;2023-03-12T14:48:49;3.53;;;2.77;;
15285;SDS011;7744;52.172;10.668;2023-03-12T14:51:20;3.67;;;3.30;;
15285;SDS011;7744;52.172;10.668;2023-03-12T14:53:54;6.60;;;5.90;;
15285;SDS011;7744;52.172;10.668;2023-03-12T14:56:28;6.73;;;6.13;;
15285;SDS011;7744;52.172;10.668;2023-03-12T14:59:00;8.33;;;7.37;;
15285;SDS011;7744;52.172;10.668;2023-03-12T15:01:44;4.73;;;4.33;;
15285;SDS011;7744;52.172;10.668;2023-03-12T15:04:15;8.60;;;4.90;;
15285;SDS011;7744;52.172;10.668;2023-03-12T15:06:45;4.83;;;4.33;;
15285;SDS011;7744;52.172;10.668;2023-03-12T15:09:17;4.60;;;3.57;;
15285;SDS011;7744;52.172;10.668;2023-03-12T15:11:47;4.53;;;3.53;;
15285;SDS011;7744;52.172;10.668;2023-03-12T15:14:17;8.03;;;4.27;;
15285;SDS011;7744;52.172;10.668;2023-03-12T15:16:43;3.53;;;3.10;;
15285;SDS011;7744;52.172;10.668;2023-03-12T15:19:19;2.60;;;2.40;;
15285;SDS011;7744;52.172;10.668;2023-03-12T15:21:48;3.53;;;3.23;;
15285;SDS011;7744;52.172;10.668;2023-03-12T15:24:14;4.30;;;3.90;;
15285;SDS011;7744;52.172;10.668;2023-03-12T15:26:43;4.17;;;3.37;;
15285;SDS011;7744;52.172;10.668;2023-03-12T15:29:25;2.43;;;2.23;;
15285;SDS011;7744;52.172;10.668;2023-03-12T15:31:56;4.50;;;2.57;;
15285;SDS011;7744;52.172;10.668;2023-03-12T15:34:56;2.33;;;2.13;;
15285;SDS011;7744;52.172;10.668;2023-03-12T15:37:23;2.70;;;2.50;;
15285;SDS011;7744;52.172;10.668;2023-03-12T15:39:59;3.23;;;2.33;;
15285;SDS011;7744;52.172;10.668;2023-03-12T15:42:26;2.80;;;2.60;;
15285;SDS011;7744;52.172;10.668;2023-03-12T15:44:56;2.50;;;2.30;;
15285;SDS011;7744;52.172;10.668;2023-03-12T15:47:27;3.87;;;2.40;;
15285;SDS011;7744;52.172;10.668;2023-03-12T15:50:00;3.30;;;2.80;;
15285;SDS011;7744;52.172;10.668;2023-03-12T15:52:32;2.53;;;2.33;;
15285;SDS011;7744;52.172;10.668;2023-03-12T15:55:04;2.43;;;2.23;;
15285;SDS011;7744;52.172;10.668;2023-03-12T15:57:46;2.37;;;2.17;;
15285;SDS011;7744;52.172;10.668;2023-03-12T16:03:20;3.13;;;2.03;;
15285;SDS011;7744;52.172;10.668;2023-03-12T16:05:49;2.47;;;2.27;;
15285;SDS011;7744;52.172;10.668;2023-03-12T16:08:22;2.57;;;2.37;;
15285;SDS011;7744;52.172;10.668;2023-03-12T16:10:58;2.40;;;2.20;;
15285;SDS011;7744;52.172;10.668;2023-03-12T16:13:28;3.10;;;2.30;;
15285;SDS011;7744;52.172;10.668;2023-03-12T16:15:55;2.80;;;2.50;;
15285;SDS011;7744;52.172;10.668;2023-03-12T16:18:21;3.07;;;2.70;;
15285;SDS011;7744;52.172;10.668;2023-03-12T16:20:48;2.80;;;2.60;;
15285;SDS011;7744;52.172;10.668;2023-03-12T16:23:15;3.40;;;3.10;;
15285;SDS011;7744;52.172;10.668;2023-03-12T16:25:42;3.43;;;3.07;;
15285;SDS011;7744;52.172;10.668;2023-03-12T16:28:09;4.73;;;3.87;;
15285;SDS011;7744;52.172;10.668;2023-03-12T16:30:38;3.40;;;2.57;;
15285;SDS011;7744;52.172;10.668;2023-03-12T16:33:04;4.23;;;3.33;;
15285;SDS011;7744;52.172;10.668;2023-03-12T16:35:30;3.50;;;3.20;;
15285;SDS011;7744;52.172;10.668;2023-03-12T16:37:56;4.17;;;3.50;;
15285;SDS011;7744;52.172;10.668;2023-03-12T16:40:27;4.83;;;3.57;;
15285;SDS011;7744;52.172;10.668;2023-03-12T16:42:55;3.80;;;3.40;;
15285;SDS011;7744;52.172;10.668;2023-03-12T16:45:24;4.50;;;3.90;;
15285;SDS011;7744;52.172;10.668;2023-03-12T16:47:52;4.97;;;3.40;;
15285;SDS011;7744;52.172;10.668;2023-03-12T16:50:21;5.70;;;4.13;;
15285;SDS011;7744;52.172;10.668;2023-03-12T16:52:48;3.40;;;3.10;;
15285;SDS011;7744;52.172;10.668;2023-03-12T16:55:21;4.17;;;3.40;;
15285;SDS011;7744;52.172;10.668;2023-03-12T16:57:53;3.50;;;3.20;;
15285;SDS011;7744;52.172;10.668;2023-03-12T17:00:22;3.47;;;3.00;;
15285;SDS011;7744;52.172;10.668;2023-03-12T17:02:49;4.13;;;2.93;;